createdAt,value
2019-01-31T00:04:57.002Z,1.70
2019-01-31T00:10:43.418Z,1.70
2019-01-31T00:16:27.971Z,1.70
2019-01-31T00:22:13.673Z,1.70
2019-01-31T00:25:14.302Z,1.60
2019-01-31T00:30:59.011Z,1.60
2019-01-31T00:36:44.783Z,1.70
2019-01-31T00:42:31.209Z,1.80
2019-01-31T00:48:16.942Z,1.80
2019-01-31T00:51:18.213Z,1.80
2019-01-31T00:57:05.166Z,1.80
2019-01-31T01:02:50.802Z,1.90
2019-01-31T01:08:36.722Z,1.90
2019-01-31T01:14:22.586Z,1.90
2019-01-31T01:20:08.307Z,1.80
2019-01-31T01:23:09.610Z,1.90
2019-01-31T01:28:54.748Z,1.80
2019-01-31T01:34:40.151Z,1.90
2019-01-31T01:40:25.206Z,1.90
2019-01-31T01:46:09.973Z,1.90
2019-01-31T01:51:56.378Z,1.90
2019-01-31T01:54:57.350Z,1.90
2019-01-31T02:00:43.257Z,2.00
2019-01-31T02:06:29.621Z,2.00
2019-01-31T02:12:15.941Z,2.00
2019-01-31T02:18:01.821Z,2.00
2019-01-31T02:23:47.479Z,2.00
2019-01-31T02:26:49.010Z,2.00
2019-01-31T02:32:34.552Z,2.00
2019-01-31T02:38:20.536Z,2.00
2019-01-31T02:44:07.287Z,2.00
2019-01-31T02:49:53.394Z,2.00
2019-01-31T02:52:54.604Z,2.00
2019-01-31T02:58:40.243Z,2.10
2019-01-31T03:04:25.272Z,2.10
2019-01-31T03:10:11.870Z,2.00
2019-01-31T03:15:57.974Z,2.10
2019-01-31T03:19:04.353Z,2.10
2019-01-31T03:24:49.626Z,2.10
2019-01-31T03:30:34.504Z,2.10
2019-01-31T03:36:19.816Z,2.10
2019-01-31T03:42:05.777Z,2.20
2019-01-31T03:47:51.281Z,2.20
2019-01-31T03:50:52.671Z,2.10
2019-01-31T03:56:38.167Z,2.20
2019-01-31T04:02:23.761Z,2.20
2019-01-31T04:08:09.508Z,2.20
2019-01-31T04:11:10.750Z,2.30
2019-01-31T04:16:56.609Z,2.20
2019-01-31T04:22:44.166Z,2.20
2019-01-31T04:28:30.795Z,2.20
2019-01-31T04:34:16.485Z,2.20
2019-01-31T04:37:17.629Z,2.20
2019-01-31T04:43:23.474Z,2.30
2019-01-31T04:49:07.294Z,2.10
2019-01-31T04:54:52.471Z,2.20
2019-01-31T05:01:18.410Z,2.20
2019-01-31T05:04:19.836Z,2.10
2019-01-31T05:10:05.787Z,2.10
2019-01-31T05:15:51.607Z,2.20
2019-01-31T05:18:53.088Z,2.20
2019-01-31T05:21:55.602Z,2.10
2019-01-31T05:24:57.155Z,2.10
2019-01-31T05:30:42.145Z,2.10
2019-01-31T05:36:27.758Z,2.00
2019-01-31T05:39:28.913Z,2.00
2019-01-31T05:45:14.075Z,2.00
2019-01-31T05:50:58.490Z,1.90
2019-01-31T05:56:49.001Z,1.90
2019-01-31T05:59:50.344Z,1.90
2019-01-31T06:05:35.034Z,1.90
2019-01-31T06:11:20.449Z,1.80
2019-01-31T06:20:12.216Z,1.70
2019-01-31T06:23:12.786Z,1.70
2019-01-31T06:26:14.065Z,1.70
2019-01-31T06:31:59.121Z,1.70
2019-01-31T06:37:44.034Z,1.60
2019-01-31T06:43:29.917Z,1.60
2019-01-31T06:46:30.629Z,1.70
2019-01-31T06:52:16.387Z,1.60
2019-01-31T06:58:02.813Z,1.60
2019-01-31T07:03:43.386Z,1.50
2019-01-31T07:06:44.846Z,1.50
2019-01-31T07:12:30.850Z,1.50
2019-01-31T07:18:15.572Z,1.40
2019-01-31T07:24:02.014Z,1.40
2019-01-31T07:30:28.767Z,1.40
2019-01-31T07:33:28.148Z,1.30
2019-01-31T07:39:12.895Z,1.30
2019-01-31T07:44:59.281Z,1.40
2019-01-31T07:48:00.420Z,1.40
2019-01-31T07:53:41.037Z,1.40
2019-01-31T07:59:25.827Z,1.40
2019-01-31T08:05:14.217Z,1.40
2019-01-31T08:08:18.499Z,1.40
2019-01-31T08:14:04.039Z,1.40
2019-01-31T08:19:49.467Z,1.40
2019-01-31T08:25:34.995Z,1.50
2019-01-31T08:28:36.301Z,1.50
2019-01-31T08:34:21.941Z,1.60
2019-01-31T08:40:08.211Z,1.70
2019-01-31T08:45:53.613Z,1.80
2019-01-31T08:48:54.379Z,1.90
2019-01-31T08:51:56.803Z,1.90
2019-01-31T08:54:58.539Z,2.00
2019-01-31T09:00:44.314Z,2.10
2019-01-31T09:03:44.962Z,2.10
2019-01-31T09:09:29.802Z,2.30
2019-01-31T09:15:15.460Z,2.40
2019-01-31T09:21:01.157Z,2.50
2019-01-31T09:26:47.573Z,2.70
2019-01-31T09:29:48.905Z,2.70
2019-01-31T09:35:33.949Z,2.80
2019-01-31T09:41:20.033Z,3.00
2019-01-31T09:47:06.414Z,3.20
2019-01-31T09:52:54.384Z,3.40
2019-01-31T10:02:04.690Z,3.50
2019-01-31T10:07:50.567Z,3.60
2019-01-31T10:13:36.325Z,3.60
2019-01-31T10:16:38.458Z,3.70
2019-01-31T10:19:39.163Z,3.70
2019-01-31T10:25:25.130Z,3.80
2019-01-31T10:28:26.095Z,3.70
2019-01-31T10:34:11.298Z,3.70
2019-01-31T10:37:11.809Z,3.70
2019-01-31T10:40:13.130Z,3.60
2019-01-31T10:45:58.807Z,3.50
2019-01-31T10:51:45.410Z,3.40
2019-01-31T10:57:30.418Z,3.40
2019-01-31T11:03:17.046Z,3.40
2019-01-31T11:06:17.629Z,3.40
2019-01-31T11:12:03.510Z,3.50
2019-01-31T11:17:52.071Z,3.60
2019-01-31T11:20:53.317Z,3.80
2019-01-31T11:23:56.994Z,4.00
2019-01-31T11:26:57.547Z,4.20
2019-01-31T11:32:42.876Z,4.30
2019-01-31T11:35:43.968Z,4.20
2019-01-31T11:38:44.645Z,4.20
2019-01-31T11:41:50.010Z,4.10
2019-01-31T11:44:56.541Z,3.90
2019-01-31T11:47:56.699Z,3.80
2019-01-31T11:53:41.550Z,3.80
2019-01-31T11:59:27.857Z,3.60
2019-01-31T12:05:13.808Z,3.90
2019-01-31T12:11:40.259Z,3.90
2019-01-31T12:14:41.629Z,4.20
2019-01-31T12:20:26.519Z,4.50
2019-01-31T12:26:14.047Z,4.90
2019-01-31T12:29:15.115Z,5.10
2019-01-31T12:34:59.827Z,4.80
2019-01-31T12:38:01.186Z,4.70
2019-01-31T12:41:03.045Z,4.80
2019-01-31T12:44:04.235Z,4.80
2019-01-31T12:49:50.450Z,4.90
2019-01-31T12:55:36.154Z,4.80
2019-01-31T13:01:22.861Z,4.90
2019-01-31T13:07:23.298Z,4.90
2019-01-31T13:10:24.206Z,5.00
2019-01-31T13:16:11.127Z,5.10
2019-01-31T13:21:58.597Z,5.20
2019-01-31T13:25:00.194Z,5.20
2019-01-31T13:30:46.546Z,5.30
2019-01-31T13:36:31.445Z,5.40
2019-01-31T13:42:16.961Z,5.30
2019-01-31T13:48:03.273Z,5.30
2019-01-31T13:51:04.227Z,5.20
2019-01-31T13:56:49.923Z,5.10
2019-01-31T14:00:10.122Z,5.10
2019-01-31T14:03:09.474Z,5.00
2019-01-31T14:06:09.957Z,5.00
2019-01-31T14:12:13.682Z,5.10
2019-01-31T14:21:19.486Z,5.10
2019-01-31T14:27:05.523Z,4.90
2019-01-31T14:32:51.257Z,4.80
2019-01-31T14:38:36.719Z,4.80
2019-01-31T14:41:38.256Z,4.80
2019-01-31T14:47:23.674Z,4.80
2019-01-31T14:53:08.606Z,4.70
2019-01-31T14:58:54.289Z,4.70
2019-01-31T15:04:40.794Z,4.60
2019-01-31T15:07:41.992Z,4.70
2019-01-31T15:13:28.538Z,4.70
2019-01-31T15:19:15.043Z,4.60
2019-01-31T15:25:00.333Z,4.50
2019-01-31T15:28:01.384Z,4.40
2019-01-31T15:33:46.603Z,4.20
2019-01-31T15:39:32.497Z,4.20
2019-01-31T15:45:18.291Z,4.10
2019-01-31T15:48:19.650Z,4.10
2019-01-31T15:54:04.505Z,4.10
2019-01-31T15:57:16.336Z,4.10
2019-01-31T16:00:09.391Z,4.00
2019-01-31T16:03:10.938Z,4.00
2019-01-31T16:08:56.450Z,4.00
2019-01-31T16:14:41.960Z,4.00
2019-01-31T16:20:23.766Z,3.90
2019-01-31T16:23:25.199Z,3.90
2019-01-31T16:29:10.913Z,3.70
2019-01-31T16:34:56.673Z,3.70
2019-01-31T16:40:41.537Z,3.70
2019-01-31T16:46:30.142Z,3.70
2019-01-31T16:49:31.127Z,3.70
2019-01-31T16:55:17.587Z,3.70
2019-01-31T17:01:02.562Z,3.60
2019-01-31T17:06:42.861Z,3.50
2019-01-31T17:09:43.349Z,3.50
2019-01-31T17:15:28.506Z,3.40
2019-01-31T17:21:13.583Z,3.30
2019-01-31T17:26:59.939Z,3.20
2019-01-31T17:30:01.290Z,3.20
2019-01-31T17:35:47.699Z,3.10
2019-01-31T17:41:32.897Z,3.00
2019-01-31T17:44:35.368Z,3.00
2019-01-31T17:47:36.780Z,2.90
2019-01-31T17:50:38.286Z,2.80
2019-01-31T17:56:23.867Z,2.80
2019-01-31T18:02:09.107Z,2.70
2019-01-31T18:07:53.870Z,2.70
2019-01-31T18:10:55.004Z,2.70
2019-01-31T18:16:39.646Z,2.70
2019-01-31T18:22:24.682Z,2.80
2019-01-31T18:28:12.238Z,2.80
2019-01-31T18:31:12.868Z,2.80
2019-01-31T18:36:59.151Z,2.90
2019-01-31T18:42:44.885Z,2.90
2019-01-31T18:48:30.214Z,2.90
2019-01-31T18:51:31.419Z,2.90
2019-01-31T18:57:17.339Z,2.90
2019-01-31T19:03:03.115Z,2.90
2019-01-31T19:08:48.027Z,2.80
2019-01-31T19:14:33.890Z,2.90
2019-01-31T19:17:35.291Z,2.90
2019-01-31T19:23:21.109Z,2.90
2019-01-31T19:29:06.917Z,2.90
2019-01-31T19:32:08.733Z,2.90
2019-01-31T19:35:09.207Z,2.90
2019-01-31T19:41:16.866Z,2.90
2019-01-31T19:44:18.442Z,2.90
2019-01-31T19:50:04.178Z,2.90
2019-01-31T19:55:49.022Z,2.90
2019-01-31T19:58:50.538Z,2.90
2019-01-31T20:01:51.143Z,2.90
2019-01-31T20:04:51.741Z,2.80
2019-01-31T20:10:38.571Z,2.80
2019-01-31T20:16:28.901Z,2.90
2019-01-31T20:22:07.751Z,2.90
2019-01-31T20:25:08.398Z,2.80
2019-01-31T20:30:54.044Z,2.90
2019-01-31T20:36:39.335Z,2.90
2019-01-31T20:42:25.025Z,2.90
2019-01-31T20:45:26.209Z,2.80
2019-01-31T20:51:12.754Z,2.90
2019-01-31T20:54:14.381Z,2.90
2019-01-31T20:57:14.940Z,2.80
2019-01-31T21:02:59.581Z,2.90
2019-01-31T21:06:00.103Z,2.90
2019-01-31T21:11:44.974Z,2.80
2019-01-31T21:17:30.827Z,2.80
2019-01-31T21:20:32.029Z,2.80
2019-01-31T21:23:32.578Z,2.80
2019-01-31T21:26:33.207Z,2.70
2019-01-31T21:29:35.249Z,2.70
2019-01-31T21:32:36.085Z,2.70
2019-01-31T21:38:20.747Z,2.70
2019-01-31T21:44:07.287Z,2.70
2019-01-31T21:47:08.187Z,2.70
2019-01-31T21:52:53.433Z,2.70
2019-01-31T21:55:54.781Z,2.70
2019-01-31T21:58:55.662Z,2.70
2019-01-31T22:01:56.181Z,2.70
2019-01-31T22:07:49.778Z,2.60
2019-01-31T22:13:41.498Z,2.50
2019-01-31T22:19:27.209Z,2.40
2019-01-31T22:22:28.725Z,2.40
2019-01-31T22:28:14.650Z,2.30
2019-01-31T22:31:15.838Z,2.20
2019-01-31T22:34:16.690Z,2.20
2019-01-31T22:40:01.509Z,2.10
2019-01-31T22:43:03.019Z,2.00
2019-01-31T22:48:48.405Z,1.90
2019-01-31T22:54:33.990Z,1.80
2019-01-31T23:00:19.328Z,1.80
2019-01-31T23:03:19.725Z,1.70
2019-01-31T23:09:05.459Z,1.60
2019-01-31T23:12:07.639Z,1.60
2019-01-31T23:15:09.022Z,1.60
2019-01-31T23:20:54.334Z,1.50
2019-01-31T23:23:55.467Z,1.50
2019-01-31T23:29:40.606Z,1.50
2019-01-31T23:35:29.493Z,1.40
2019-01-31T23:41:16.282Z,1.30
2019-01-31T23:44:17.682Z,1.30
2019-01-31T23:50:03.434Z,1.20
2019-01-31T23:55:48.450Z,1.10
